createdAt,value
2018-06-11T00:03:29.782Z,20.10
2018-06-11T00:08:24.363Z,19.80
2018-06-11T00:13:18.898Z,19.60
2018-06-11T00:18:13.438Z,19.60
2018-06-11T00:23:08.013Z,19.50
2018-06-11T00:28:02.588Z,19.50
2018-06-11T00:32:57.125Z,19.60
2018-06-11T00:37:51.761Z,19.70
2018-06-11T00:42:46.263Z,19.60
2018-06-11T00:47:40.878Z,19.60
2018-06-11T00:52:35.425Z,19.50
2018-06-11T00:57:29.982Z,19.60
2018-06-11T01:02:24.534Z,19.70
2018-06-11T01:07:19.090Z,19.60
2018-06-11T01:12:13.623Z,19.40
2018-06-11T01:17:08.212Z,19.50
2018-06-11T01:22:02.788Z,19.20
2018-06-11T01:31:55.179Z,19.20
2018-06-11T01:36:49.759Z,19.10
2018-06-11T01:41:44.338Z,19.10
2018-06-11T01:46:38.920Z,19.10
2018-06-11T01:51:33.487Z,19.10
2018-06-11T01:56:28.011Z,19.10
2018-06-11T02:01:22.530Z,19.10
2018-06-11T02:06:17.094Z,18.90
2018-06-11T02:11:11.620Z,18.70
2018-06-11T02:16:06.264Z,18.60
2018-06-11T02:21:00.785Z,18.70
2018-06-11T02:25:55.346Z,18.80
2018-06-11T02:30:49.856Z,18.60
2018-06-11T02:35:44.430Z,18.50
2018-06-11T02:40:38.974Z,18.60
2018-06-11T02:45:33.575Z,18.70
2018-06-11T02:50:28.094Z,18.50
2018-06-11T02:55:22.628Z,18.50
2018-06-11T03:00:17.176Z,18.50
2018-06-11T03:05:11.739Z,18.40
2018-06-11T03:10:06.405Z,18.40
2018-06-11T03:15:00.952Z,18.30
2018-06-11T03:19:55.499Z,18.40
2018-06-11T03:24:50.019Z,18.30
2018-06-11T03:29:44.545Z,18.10
2018-06-11T03:34:39.059Z,18.10
2018-06-11T03:39:33.614Z,18.20
2018-06-11T03:44:28.420Z,18.30
2018-06-11T03:49:22.950Z,18.40
2018-06-11T03:54:17.466Z,18.50
2018-06-11T03:59:12.040Z,18.40
2018-06-11T04:04:06.622Z,18.50
2018-06-11T04:09:01.167Z,18.60
2018-06-11T04:13:55.753Z,18.50
2018-06-11T04:18:50.258Z,18.60
2018-06-11T04:23:44.871Z,18.50
2018-06-11T04:28:39.410Z,18.50
2018-06-11T04:33:33.942Z,18.70
2018-06-11T04:38:28.566Z,18.80
2018-06-11T04:43:23.138Z,19.10
2018-06-11T04:48:17.683Z,19.40
2018-06-11T04:53:12.195Z,19.70
2018-06-11T04:58:06.748Z,20.10
2018-06-11T05:03:01.319Z,20.40
2018-06-11T05:07:56.024Z,20.60
2018-06-11T05:12:50.563Z,20.80
2018-06-11T05:17:45.109Z,21.20
2018-06-11T05:22:39.682Z,21.60
2018-06-11T05:27:34.220Z,21.50
2018-06-11T05:32:28.785Z,21.70
2018-06-11T05:37:23.355Z,22.20
2018-06-11T05:42:17.878Z,22.40
2018-06-11T05:47:12.421Z,22.70
2018-06-11T05:52:07.227Z,22.60
2018-06-11T05:57:01.803Z,22.60
2018-06-11T06:01:56.356Z,22.90
2018-06-11T06:06:50.899Z,22.70
2018-06-11T06:11:45.442Z,22.30
2018-06-11T06:16:39.999Z,22.20
2018-06-11T06:21:34.626Z,21.90
2018-06-11T06:26:29.210Z,21.90
2018-06-11T06:31:23.781Z,22.10
2018-06-11T06:36:18.337Z,22.20
2018-06-11T06:41:12.893Z,22.40
2018-06-11T06:46:07.475Z,22.60
2018-06-11T06:51:02.010Z,22.80
2018-06-11T06:55:56.617Z,22.80
2018-06-11T07:00:54.126Z,22.80
2018-06-11T07:05:48.668Z,22.50
2018-06-11T07:10:43.202Z,22.50
2018-06-11T07:15:37.794Z,22.60
2018-06-11T07:20:32.359Z,23.00
2018-06-11T07:25:26.929Z,23.00
2018-06-11T07:30:21.501Z,23.60
2018-06-11T07:40:08.949Z,24.70
2018-06-11T07:45:03.539Z,26.10
2018-06-11T07:49:58.090Z,26.20
2018-06-11T07:54:52.646Z,26.00
2018-06-11T07:59:47.198Z,26.10
2018-06-11T08:04:41.819Z,26.00
2018-06-11T08:09:36.407Z,25.70
2018-06-11T08:14:31.004Z,25.50
2018-06-11T08:19:25.634Z,25.20
2018-06-11T08:24:20.232Z,24.90
2018-06-11T08:29:14.860Z,24.90
2018-06-11T08:34:09.418Z,25.00
2018-06-11T08:39:04.815Z,25.00
2018-06-11T08:43:59.366Z,24.90
2018-06-11T08:48:53.929Z,25.10
2018-06-11T08:53:48.517Z,25.00
2018-06-11T08:58:43.955Z,25.20
2018-06-11T09:03:38.487Z,25.90
2018-06-11T09:08:33.039Z,26.40
2018-06-11T09:13:27.593Z,26.80
2018-06-11T09:23:16.368Z,27.10
2018-06-11T09:28:10.915Z,26.80
2018-06-11T09:33:05.593Z,26.60
2018-06-11T09:38:00.191Z,26.30
2018-06-11T09:42:54.792Z,26.10
2018-06-11T09:47:49.397Z,25.80
2018-06-11T09:52:43.940Z,25.50
2018-06-11T09:57:38.507Z,25.40
2018-06-11T10:02:33.055Z,25.50
2018-06-11T10:07:27.622Z,25.90
2018-06-11T10:12:22.174Z,26.00
2018-06-11T10:17:16.690Z,26.20
2018-06-11T10:22:11.248Z,26.30
2018-06-11T10:27:05.842Z,26.30
2018-06-11T10:32:00.377Z,26.30
2018-06-11T10:36:54.983Z,26.30
2018-06-11T10:46:43.785Z,25.90
2018-06-11T10:51:38.314Z,25.90
2018-06-11T10:56:32.918Z,25.80
2018-06-11T11:01:27.568Z,25.70
2018-06-11T11:06:22.068Z,25.50
2018-06-11T11:11:16.640Z,25.30
2018-06-11T11:16:11.255Z,24.90
2018-06-11T11:21:06.014Z,24.70
2018-06-11T11:26:00.663Z,24.40
2018-06-11T11:30:55.222Z,24.10
2018-06-11T11:35:49.824Z,24.20
2018-06-11T11:40:44.412Z,24.30
2018-06-11T11:45:39.006Z,24.30
2018-06-11T11:50:33.613Z,24.20
2018-06-11T11:55:28.199Z,23.80
2018-06-11T12:00:22.750Z,23.50
2018-06-11T12:05:17.306Z,23.00
2018-06-11T12:10:11.883Z,22.70
2018-06-11T12:15:06.639Z,22.70
2018-06-11T12:20:01.287Z,22.70
2018-06-11T12:24:55.993Z,22.80
2018-06-11T12:29:50.840Z,22.90
2018-06-11T12:34:45.803Z,23.10
2018-06-11T12:39:40.676Z,22.90
2018-06-11T12:44:35.562Z,22.80
2018-06-11T12:49:30.462Z,23.00
2018-06-11T12:54:25.186Z,23.30
2018-06-11T12:59:32.788Z,23.70
2018-06-11T13:04:27.529Z,24.00
2018-06-11T13:09:22.227Z,24.40
2018-06-11T13:14:16.830Z,24.40
2018-06-11T13:19:11.486Z,24.40
2018-06-11T13:24:06.184Z,24.20
2018-06-11T13:29:00.782Z,24.20
2018-06-11T13:33:55.445Z,24.20
2018-06-11T13:38:50.062Z,24.10
2018-06-11T13:43:44.696Z,23.90
2018-06-11T13:48:39.316Z,23.30
2018-06-11T13:53:33.842Z,22.70
2018-06-11T13:58:28.474Z,22.50
2018-06-11T14:03:23.041Z,22.30
2018-06-11T14:08:17.684Z,22.30
2018-06-11T14:13:12.190Z,22.30
2018-06-11T14:18:06.834Z,22.30
2018-06-11T14:23:01.391Z,22.10
2018-06-11T14:27:56.029Z,21.90
2018-06-11T14:32:54.752Z,21.70
2018-06-11T14:37:50.437Z,21.00
2018-06-11T14:42:45.372Z,20.30
2018-06-11T14:48:06.707Z,20.30
2018-06-11T14:53:01.343Z,20.60
2018-06-11T14:57:56.140Z,21.00
2018-06-11T15:02:51.376Z,21.30
2018-06-11T15:07:46.691Z,21.50
2018-06-11T15:12:49.056Z,21.60
2018-06-11T15:18:09.777Z,21.40
2018-06-11T15:23:05.124Z,21.30
2018-06-11T15:28:03.011Z,21.30
2018-06-11T15:38:23.757Z,21.50
2018-06-11T15:48:43.772Z,21.60
2018-06-11T15:53:39.171Z,21.60
2018-06-11T15:58:33.885Z,21.40
2018-06-11T16:03:28.825Z,21.30
2018-06-11T16:08:23.951Z,21.30
2018-06-11T16:14:10.438Z,21.10
2018-06-11T16:19:05.570Z,21.10
2018-06-11T16:24:00.382Z,21.00
2018-06-11T16:28:55.229Z,20.60
2018-06-11T16:33:50.027Z,20.40
2018-06-11T16:38:44.984Z,20.20
2018-06-11T16:43:39.823Z,20.30
2018-06-11T16:48:35.187Z,20.30
2018-06-11T16:53:30.223Z,20.60
2018-06-11T16:58:26.096Z,21.10
2018-06-11T17:03:40.175Z,21.00
2018-06-11T17:35:45.191Z,20.90
2018-06-11T17:40:39.861Z,20.70
2018-06-11T17:45:34.539Z,20.60
2018-06-11T17:50:29.214Z,20.50
2018-06-11T17:55:23.878Z,20.40
2018-06-11T18:00:18.528Z,20.30
2018-06-11T18:05:13.187Z,20.10
2018-06-11T18:10:07.947Z,20.00
2018-06-11T18:15:02.775Z,19.90
2018-06-11T18:19:57.478Z,19.90
2018-06-11T18:24:52.454Z,19.90
2018-06-11T18:29:47.151Z,19.80
2018-06-11T18:34:42.185Z,19.80
2018-06-11T18:39:36.902Z,19.70
2018-06-11T18:44:31.827Z,19.60
2018-06-11T18:49:26.478Z,19.50
2018-06-11T18:54:21.094Z,19.40
2018-06-11T18:59:15.844Z,19.30
2018-06-11T19:04:10.596Z,19.30
2018-06-11T19:09:07.807Z,19.20
2018-06-11T19:14:02.515Z,19.00
2018-06-11T19:18:57.346Z,18.80
2018-06-11T19:23:52.067Z,18.70
2018-06-11T19:28:46.749Z,18.60
2018-06-11T19:33:41.638Z,18.70
2018-06-11T19:38:36.326Z,18.70
2018-06-11T19:43:31.183Z,18.60
2018-06-11T19:48:25.862Z,18.70
2018-06-11T19:53:20.602Z,18.60
2018-06-11T19:58:15.302Z,18.60
2018-06-11T20:08:04.252Z,18.70
2018-06-11T20:12:58.919Z,18.60
2018-06-11T20:17:53.606Z,18.50
2018-06-11T20:22:48.233Z,18.50
2018-06-11T20:27:42.949Z,18.40
2018-06-11T20:32:37.646Z,18.50
2018-06-11T20:37:32.309Z,18.50
2018-06-11T20:42:26.968Z,18.50
2018-06-11T20:47:21.716Z,18.50
2018-06-11T20:52:16.338Z,18.50
2018-06-11T20:57:10.999Z,18.50
2018-06-11T21:02:05.779Z,18.50
2018-06-11T21:07:00.403Z,18.30
2018-06-11T21:11:55.068Z,18.40
2018-06-11T21:16:49.678Z,18.40
2018-06-11T21:21:44.299Z,18.30
2018-06-11T21:26:38.896Z,18.30
2018-06-11T21:31:33.609Z,18.30
2018-06-11T21:36:28.254Z,18.30
2018-06-11T21:46:17.233Z,18.30
2018-06-11T21:51:11.822Z,18.10
2018-06-11T21:56:06.432Z,18.20
2018-06-11T22:01:01.076Z,18.20
2018-06-11T22:05:55.692Z,18.30
2018-06-11T22:10:50.360Z,18.10
2018-06-11T22:15:44.916Z,18.10
2018-06-11T22:20:39.566Z,17.90
2018-06-11T22:25:34.196Z,17.80
2018-06-11T22:30:29.179Z,17.70
2018-06-11T22:35:23.730Z,17.70
2018-06-11T22:40:18.635Z,17.60
2018-06-11T22:45:13.243Z,17.50
2018-06-11T22:50:07.882Z,17.30
2018-06-11T22:55:02.486Z,17.40
2018-06-11T22:59:57.050Z,17.40
2018-06-11T23:04:51.758Z,17.50
2018-06-11T23:09:46.366Z,17.60
2018-06-11T23:14:40.955Z,17.50
2018-06-11T23:19:35.522Z,17.30
2018-06-11T23:24:30.086Z,17.30
2018-06-11T23:29:24.655Z,17.20
2018-06-11T23:34:19.258Z,17.20
2018-06-11T23:39:13.883Z,17.20
2018-06-11T23:44:08.491Z,17.10
2018-06-11T23:49:03.100Z,17.10
2018-06-11T23:53:57.694Z,17.10
2018-06-11T23:58:52.548Z,17.10
